Time,TemperatureF,DewpointF,PressureIn,WindDirection,WindDirectionDegrees,WindSpeedMPH,WindSpeedGustMPH,Humidity,HourlyPrecipIn,Conditions,Clouds,dailyrainin,SoftwareType,DateUTC
2014-08-02 00:01:00,83.0,74.2,29.96,ESE,107,0.0,8.0,75,0.00,,,0.00,Weather View 32 v70,2014-08-02 04:01:00,
2014-08-02 00:06:00,83.0,74.6,29.96,ESE,118,2.0,8.0,76,0.00,,,0.00,Weather View 32 v70,2014-08-02 04:06:00,
2014-08-02 00:11:00,82.0,74.0,29.96,ESE,122,1.0,8.0,77,0.00,,,0.00,Weather View 32 v70,2014-08-02 04:11:00,
2014-08-02 00:16:00,82.0,74.4,29.96,East,95,0.0,8.0,78,0.00,,,0.00,Weather View 32 v70,2014-08-02 04:16:00,
2014-08-02 00:21:00,82.0,74.8,29.96,ESE,123,7.0,8.0,79,0.00,,,0.00,Weather View 32 v70,2014-08-02 04:21:00,
2014-08-02 00:26:00,82.0,74.8,29.96,ESE,118,4.0,8.0,79,0.00,,,0.00,Weather View 32 v70,2014-08-02 04:26:00,
2014-08-02 00:30:00,82.0,75.2,29.96,ESE,118,0.0,8.0,80,0.00,,,0.00,Weather View 32 v70,2014-08-02 04:30:00,
2014-08-02 00:31:00,82.0,75.2,29.96,ESE,114,0.0,8.0,80,0.00,,,0.00,Weather View 32 v70,2014-08-02 04:31:00,
2014-08-02 00:36:00,82.0,75.6,29.96,ESE,113,0.0,8.0,81,0.00,,,0.00,Weather View 32 v70,2014-08-02 04:36:00,
2014-08-02 00:41:00,81.0,74.6,29.95,ESE,113,0.0,8.0,81,0.00,,,0.00,Weather View 32 v70,2014-08-02 04:41:00,
2014-08-02 00:46:00,81.0,74.6,29.95,ESE,113,0.0,8.0,81,0.00,,,0.00,Weather View 32 v70,2014-08-02 04:46:00,
2014-08-02 00:51:00,81.0,74.6,29.95,ESE,113,0.0,8.0,81,0.00,,,0.00,Weather View 32 v70,2014-08-02 04:51:00,
2014-08-02 00:56:00,81.0,75.0,29.95,ESE,113,3.0,8.0,82,0.00,,,0.00,Weather View 32 v70,2014-08-02 04:56:00,
2014-08-02 01:01:00,81.0,75.0,29.95,ESE,105,0.0,8.0,82,0.00,,,0.00,Weather View 32 v70,2014-08-02 05:01:00,
2014-08-02 01:06:00,81.0,75.3,29.95,ESE,108,0.0,8.0,83,0.00,,,0.00,Weather View 32 v70,2014-08-02 05:06:00,
2014-08-02 01:11:00,80.0,74.3,29.95,ESE,108,0.0,8.0,83,0.00,,,0.00,Weather View 32 v70,2014-08-02 05:11:00,
2014-08-02 01:16:00,80.0,74.7,29.95,ESE,108,0.0,8.0,84,0.00,,,0.00,Weather View 32 v70,2014-08-02 05:16:00,
2014-08-02 01:21:00,80.0,74.7,29.95,ESE,108,0.0,7.0,84,0.00,,,0.00,Weather View 32 v70,2014-08-02 05:21:00,
2014-08-02 01:26:00,80.0,75.1,29.94,ESE,108,0.0,5.0,85,0.00,,,0.00,Weather View 32 v70,2014-08-02 05:26:00,
2014-08-02 01:30:00,80.0,75.1,29.94,ESE,108,0.0,5.0,85,0.00,,,0.00,Weather View 32 v70,2014-08-02 05:30:00,
2014-08-02 01:31:00,80.0,75.1,29.94,ESE,108,0.0,5.0,85,0.00,,,0.00,Weather View 32 v70,2014-08-02 05:31:00,
2014-08-02 01:36:00,80.0,75.1,29.94,ESE,108,0.0,5.0,85,0.00,,,0.00,Weather View 32 v70,2014-08-02 05:36:00,
2014-08-02 01:42:00,80.0,75.1,29.93,ESE,108,0.0,5.0,85,0.00,,,0.00,Weather View 32 v70,2014-08-02 05:42:00,
2014-08-02 01:47:00,80.0,75.4,29.93,ESE,108,0.0,5.0,86,0.00,,,0.00,Weather View 32 v70,2014-08-02 05:47:00,
2014-08-02 01:52:00,80.0,75.4,29.93,ESE,108,0.0,5.0,86,0.00,,,0.00,Weather View 32 v70,2014-08-02 05:52:00,
2014-08-02 01:57:00,80.0,75.4,29.93,ESE,108,0.0,5.0,86,0.00,,,0.00,Weather View 32 v70,2014-08-02 05:57:00,
2014-08-02 02:02:00,79.0,74.4,29.93,ESE,108,0.0,5.0,86,0.00,,,0.00,Weather View 32 v70,2014-08-02 06:02:00,
2014-08-02 02:07:00,79.0,74.4,29.93,ESE,108,0.0,2.0,86,0.00,,,0.00,Weather View 32 v70,2014-08-02 06:07:00,
2014-08-02 02:12:00,79.0,74.8,29.93,ESE,108,0.0,2.0,87,0.00,,,0.00,Weather View 32 v70,2014-08-02 06:12:00,
2014-08-02 02:17:00,79.0,74.8,29.93,ESE,108,0.0,1.0,87,0.00,,,0.00,Weather View 32 v70,2014-08-02 06:17:00,
2014-08-02 02:22:00,79.0,74.8,29.92,ESE,108,0.0,1.0,87,0.00,,,0.00,Weather View 32 v70,2014-08-02 06:22:00,
2014-08-02 02:27:00,79.0,74.8,29.93,ESE,108,0.0,1.0,87,0.00,,,0.00,Weather View 32 v70,2014-08-02 06:27:00,
2014-08-02 02:30:00,79.0,74.8,29.93,ESE,108,0.0,1.0,87,0.00,,,0.00,Weather View 32 v70,2014-08-02 06:30:00,
2014-08-02 02:32:00,79.0,74.8,29.92,ESE,108,0.0,1.0,87,0.00,,,0.00,Weather View 32 v70,2014-08-02 06:32:00,
2014-08-02 02:37:00,79.0,74.8,29.92,ESE,108,0.0,1.0,87,0.00,,,0.00,Weather View 32 v70,2014-08-02 06:37:00,
2014-08-02 02:42:00,79.0,74.8,29.92,ESE,108,0.0,1.0,87,0.00,,,0.00,Weather View 32 v70,2014-08-02 06:42:00,
2014-08-02 02:47:00,79.0,74.8,29.92,ESE,108,0.0,1.0,87,0.00,,,0.00,Weather View 32 v70,2014-08-02 06:47:00,
2014-08-02 02:52:00,79.0,74.8,29.92,ESE,108,0.0,1.0,87,0.00,,,0.00,Weather View 32 v70,2014-08-02 06:52:00,
2014-08-02 02:57:00,79.0,74.8,29.92,ESE,108,0.0,1.0,87,0.00,,,0.00,Weather View 32 v70,2014-08-02 06:57:00,
2014-08-02 03:02:00,79.0,75.1,29.92,ESE,108,0.0,0.0,88,0.00,,,0.00,Weather View 32 v70,2014-08-02 07:02:00,
2014-08-02 03:07:00,79.0,75.1,29.92,ESE,108,0.0,0.0,88,0.00,,,0.00,Weather View 32 v70,2014-08-02 07:07:00,
2014-08-02 03:12:00,79.0,75.1,29.92,ESE,108,0.0,0.0,88,0.00,,,0.00,Weather View 32 v70,2014-08-02 07:12:00,
2014-08-02 03:17:00,79.0,75.1,29.92,ESE,108,0.0,0.0,88,0.00,,,0.00,Weather View 32 v70,2014-08-02 07:17:00,
2014-08-02 03:22:00,79.0,75.1,29.92,ESE,108,0.0,0.0,88,0.00,,,0.00,Weather View 32 v70,2014-08-02 07:22:00,
2014-08-02 03:27:00,79.0,75.1,29.92,ESE,108,0.0,1.0,88,0.00,,,0.00,Weather View 32 v70,2014-08-02 07:27:00,
2014-08-02 03:30:00,79.0,75.1,29.92,ESE,108,0.0,1.0,88,0.00,,,0.00,Weather View 32 v70,2014-08-02 07:30:00,
2014-08-02 03:32:00,79.0,75.1,29.92,ESE,108,0.0,1.0,88,0.00,,,0.00,Weather View 32 v70,2014-08-02 07:32:00,
2014-08-02 03:37:00,79.0,75.1,29.92,ESE,108,0.0,1.0,88,0.00,,,0.00,Weather View 32 v70,2014-08-02 07:37:00,
2014-08-02 03:42:00,79.0,75.1,29.91,ESE,108,0.0,1.0,88,0.00,,,0.00,Weather View 32 v70,2014-08-02 07:42:00,
2014-08-02 03:47:00,79.0,75.1,29.91,ESE,108,0.0,1.0,88,0.00,,,0.00,Weather View 32 v70,2014-08-02 07:47:00,
2014-08-02 03:52:00,79.0,75.1,29.91,ESE,108,0.0,1.0,88,0.00,,,0.00,Weather View 32 v70,2014-08-02 07:52:00,
2014-08-02 03:57:00,79.0,75.1,29.91,ESE,108,0.0,1.0,88,0.00,,,0.00,Weather View 32 v70,2014-08-02 07:57:00,
2014-08-02 04:02:00,79.0,75.1,29.91,ESE,108,0.0,1.0,88,0.00,,,0.00,Weather View 32 v70,2014-08-02 08:02:00,
2014-08-02 04:07:00,78.0,74.5,29.90,ESE,108,0.0,1.0,89,0.00,,,0.00,Weather View 32 v70,2014-08-02 08:07:00,
2014-08-02 04:12:00,78.0,74.5,29.90,ESE,108,0.0,1.0,89,0.00,,,0.00,Weather View 32 v70,2014-08-02 08:12:00,
2014-08-02 04:17:00,78.0,74.5,29.90,ESE,108,0.0,1.0,89,0.00,,,0.00,Weather View 32 v70,2014-08-02 08:17:00,
2014-08-02 04:22:00,78.0,74.5,29.90,ESE,108,0.0,1.0,89,0.00,,,0.00,Weather View 32 v70,2014-08-02 08:22:00,
2014-08-02 04:27:00,78.0,74.5,29.90,ESE,108,0.0,1.0,89,0.00,,,0.00,Weather View 32 v70,2014-08-02 08:27:00,
2014-08-02 04:30:00,78.0,74.5,29.90,ESE,108,0.0,1.0,89,0.00,,,0.00,Weather View 32 v70,2014-08-02 08:30:00,
2014-08-02 04:32:00,78.0,74.5,29.90,ESE,108,0.0,1.0,89,0.00,,,0.00,Weather View 32 v70,2014-08-02 08:32:00,
2014-08-02 04:37:00,78.0,74.5,29.90,ESE,108,0.0,0.0,89,0.00,,,0.00,Weather View 32 v70,2014-08-02 08:37:00,
2014-08-02 04:42:00,78.0,74.8,29.91,ESE,108,0.0,0.0,90,0.00,,,0.00,Weather View 32 v70,2014-08-02 08:42:00,
2014-08-02 04:47:00,78.0,74.8,29.91,ESE,108,0.0,0.0,90,0.00,,,0.00,Weather View 32 v70,2014-08-02 08:47:00,
2014-08-02 04:52:00,78.0,74.8,29.91,ESE,108,0.0,0.0,90,0.00,,,0.00,Weather View 32 v70,2014-08-02 08:52:00,
2014-08-02 04:57:00,78.0,74.8,29.91,ESE,108,0.0,0.0,90,0.00,,,0.00,Weather View 32 v70,2014-08-02 08:57:00,
2014-08-02 05:02:00,78.0,74.8,29.91,ESE,108,0.0,0.0,90,0.00,,,0.00,Weather View 32 v70,2014-08-02 09:02:00,
2014-08-02 05:07:00,78.0,74.8,29.91,ESE,108,0.0,0.0,90,0.00,,,0.00,Weather View 32 v70,2014-08-02 09:07:00,
2014-08-02 05:12:00,78.0,74.8,29.91,ESE,108,0.0,0.0,90,0.00,,,0.00,Weather View 32 v70,2014-08-02 09:12:00,
2014-08-02 05:17:00,78.0,74.8,29.91,ESE,108,0.0,0.0,90,0.00,,,0.00,Weather View 32 v70,2014-08-02 09:17:00,
2014-08-02 05:22:00,78.0,74.8,29.91,ESE,108,0.0,0.0,90,0.00,,,0.00,Weather View 32 v70,2014-08-02 09:22:00,
2014-08-02 05:27:00,78.0,74.8,29.91,ESE,108,0.0,0.0,90,0.00,,,0.00,Weather View 32 v70,2014-08-02 09:27:00,
2014-08-02 05:30:00,78.0,75.1,29.91,ESE,108,0.0,0.0,91,0.00,,,0.00,Weather View 32 v70,2014-08-02 09:30:00,
2014-08-02 05:32:00,78.0,75.1,29.91,ESE,108,0.0,0.0,91,0.00,,,0.00,Weather View 32 v70,2014-08-02 09:32:00,
2014-08-02 05:37:00,78.0,75.1,29.91,ESE,108,0.0,0.0,91,0.00,,,0.00,Weather View 32 v70,2014-08-02 09:37:00,
2014-08-02 05:42:00,78.0,75.1,29.91,ESE,108,0.0,1.0,91,0.00,,,0.00,Weather View 32 v70,2014-08-02 09:42:00,
2014-08-02 05:47:00,78.0,75.1,29.91,ESE,108,0.0,1.0,91,0.00,,,0.00,Weather View 32 v70,2014-08-02 09:47:00,
2014-08-02 05:52:00,78.0,75.1,29.91,ESE,108,0.0,1.0,91,0.00,,,0.00,Weather View 32 v70,2014-08-02 09:52:00,
2014-08-02 05:57:00,78.0,75.1,29.91,ESE,108,0.0,1.0,91,0.00,,,0.00,Weather View 32 v70,2014-08-02 09:57:00,
2014-08-02 06:03:00,77.0,74.2,29.91,ESE,108,0.0,1.0,91,0.00,,,0.00,Weather View 32 v70,2014-08-02 10:03:00,
2014-08-02 06:08:00,77.0,74.2,29.91,ESE,108,0.0,1.0,91,0.00,,,0.00,Weather View 32 v70,2014-08-02 10:08:00,
2014-08-02 06:13:00,77.0,74.2,29.91,ESE,108,0.0,1.0,91,0.00,,,0.00,Weather View 32 v70,2014-08-02 10:13:00,
2014-08-02 06:18:00,77.0,74.2,29.92,ESE,107,0.0,1.0,91,0.00,,,0.00,Weather View 32 v70,2014-08-02 10:18:00,